sensor_id;sensor_type;location;lat;lon;timestamp;pressure;altitude;pressure_sealevel;temperature;humidity
16525;BME280;8375;33.594;-117.718;2023-01-28T00:01:13;100300.59;;;18.83;25.08
16525;BME280;8375;33.594;-117.718;2023-01-28T00:03:42;100304.91;;;18.76;25.21
16525;BME280;8375;33.594;-117.718;2023-01-28T00:06:12;100296.91;;;18.61;26.17
16525;BME280;8375;33.594;-117.718;2023-01-28T00:08:42;100298.72;;;18.52;26.83
16525;BME280;8375;33.594;-117.718;2023-01-28T00:11:13;100298.06;;;18.42;27.18
16525;BME280;8375;33.594;-117.718;2023-01-28T00:13:42;100305.66;;;18.37;27.62
16525;BME280;8375;33.594;-117.718;2023-01-28T00:16:11;100301.06;;;18.22;28.28
16525;BME280;8375;33.594;-117.718;2023-01-28T00:18:40;100297.78;;;18.20;27.45
16525;BME280;8375;33.594;-117.718;2023-01-28T00:21:10;100294.19;;;18.13;28.84
16525;BME280;8375;33.594;-117.718;2023-01-28T00:23:41;100290.25;;;18.09;28.58
16525;BME280;8375;33.594;-117.718;2023-01-28T00:26:13;100293.00;;;17.99;28.09
16525;BME280;8375;33.594;-117.718;2023-01-28T00:28:43;100296.91;;;17.86;28.53
16525;BME280;8375;33.594;-117.718;2023-01-28T00:31:14;100290.84;;;17.69;27.98
16525;BME280;8375;33.594;-117.718;2023-01-28T00:33:44;100286.91;;;17.65;28.70
16525;BME280;8375;33.594;-117.718;2023-01-28T00:36:14;100287.88;;;17.56;28.49
16525;BME280;8375;33.594;-117.718;2023-01-28T00:38:48;100286.88;;;17.49;29.49
16525;BME280;8375;33.594;-117.718;2023-01-28T00:41:20;100285.69;;;17.35;29.33
16525;BME280;8375;33.594;-117.718;2023-01-28T00:43:49;100283.88;;;17.27;29.03
16525;BME280;8375;33.594;-117.718;2023-01-28T00:46:19;100284.50;;;17.12;30.50
16525;BME280;8375;33.594;-117.718;2023-01-28T00:48:49;100284.63;;;17.03;30.30
16525;BME280;8375;33.594;-117.718;2023-01-28T00:51:18;100286.50;;;16.92;30.28
16525;BME280;8375;33.594;-117.718;2023-01-28T00:53:47;100285.31;;;16.78;30.00
16525;BME280;8375;33.594;-117.718;2023-01-28T00:56:18;100282.97;;;16.67;29.85
16525;BME280;8375;33.594;-117.718;2023-01-28T00:58:47;100287.50;;;16.56;31.97
16525;BME280;8375;33.594;-117.718;2023-01-28T01:01:17;100286.13;;;16.44;31.12
16525;BME280;8375;33.594;-117.718;2023-01-28T01:03:47;100285.09;;;16.37;31.51
16525;BME280;8375;33.594;-117.718;2023-01-28T01:06:24;100282.50;;;16.19;32.33
16525;BME280;8375;33.594;-117.718;2023-01-28T01:08:53;100293.75;;;16.11;33.20
16525;BME280;8375;33.594;-117.718;2023-01-28T01:11:24;100287.91;;;15.99;33.88
16525;BME280;8375;33.594;-117.718;2023-01-28T01:13:54;100290.88;;;15.86;34.62
16525;BME280;8375;33.594;-117.718;2023-01-28T01:16:24;100288.19;;;15.78;34.79
16525;BME280;8375;33.594;-117.718;2023-01-28T01:18:54;100293.13;;;15.63;36.15
16525;BME280;8375;33.594;-117.718;2023-01-28T01:21:26;100293.34;;;15.51;34.22
16525;BME280;8375;33.594;-117.718;2023-01-28T01:23:55;100297.28;;;15.37;36.31
16525;BME280;8375;33.594;-117.718;2023-01-28T01:26:25;100296.66;;;15.25;36.09
16525;BME280;8375;33.594;-117.718;2023-01-28T01:28:54;100293.78;;;15.19;38.83
16525;BME280;8375;33.594;-117.718;2023-01-28T01:31:25;100294.00;;;15.07;38.73
16525;BME280;8375;33.594;-117.718;2023-01-28T01:33:54;100299.19;;;14.89;37.95
16525;BME280;8375;33.594;-117.718;2023-01-28T01:36:23;100298.69;;;14.76;38.72
16525;BME280;8375;33.594;-117.718;2023-01-28T01:38:53;100312.56;;;14.57;39.14
16525;BME280;8375;33.594;-117.718;2023-01-28T01:41:26;100303.66;;;14.49;40.20
16525;BME280;8375;33.594;-117.718;2023-01-28T01:43:57;100306.31;;;14.40;40.72
16525;BME280;8375;33.594;-117.718;2023-01-28T01:46:31;100313.59;;;14.26;39.94
16525;BME280;8375;33.594;-117.718;2023-01-28T01:49:06;100312.78;;;14.16;41.04
16525;BME280;8375;33.594;-117.718;2023-01-28T01:51:36;100317.72;;;14.09;40.36
16525;BME280;8375;33.594;-117.718;2023-01-28T01:54:05;100319.66;;;13.97;40.70
16525;BME280;8375;33.594;-117.718;2023-01-28T01:56:39;100319.66;;;13.87;41.41
16525;BME280;8375;33.594;-117.718;2023-01-28T01:59:12;100316.22;;;13.77;41.71
16525;BME280;8375;33.594;-117.718;2023-01-28T02:01:42;100313.59;;;13.67;41.64
16525;BME280;8375;33.594;-117.718;2023-01-28T02:04:17;100315.22;;;13.58;42.52
16525;BME280;8375;33.594;-117.718;2023-01-28T02:06:47;100305.34;;;13.52;43.06
16525;BME280;8375;33.594;-117.718;2023-01-28T02:09:26;100310.00;;;13.48;43.08
16525;BME280;8375;33.594;-117.718;2023-01-28T02:12:00;100299.66;;;13.37;42.36
16525;BME280;8375;33.594;-117.718;2023-01-28T02:14:32;100304.25;;;13.24;42.90
16525;BME280;8375;33.594;-117.718;2023-01-28T02:17:02;100303.03;;;13.18;44.04
16525;BME280;8375;33.594;-117.718;2023-01-28T02:19:36;100299.56;;;13.08;43.56
16525;BME280;8375;33.594;-117.718;2023-01-28T02:25:33;100288.81;;;12.91;45.15
16525;BME280;8375;33.594;-117.718;2023-01-28T02:28:19;100287.28;;;12.88;45.59
16525;BME280;8375;33.594;-117.718;2023-01-28T02:30:55;100279.16;;;12.82;44.74
16525;BME280;8375;33.594;-117.718;2023-01-28T02:33:40;100291.19;;;12.73;45.83
16525;BME280;8375;33.594;-117.718;2023-01-28T02:36:25;100284.72;;;12.67;45.53
16525;BME280;8375;33.594;-117.718;2023-01-28T02:39:08;100279.44;;;12.57;44.94
16525;BME280;8375;33.594;-117.718;2023-01-28T02:41:51;100274.91;;;12.50;45.49
16525;BME280;8375;33.594;-117.718;2023-01-28T02:44:23;100269.50;;;12.41;45.46
16525;BME280;8375;33.594;-117.718;2023-01-28T02:46:55;100269.50;;;12.41;45.04
16525;BME280;8375;33.594;-117.718;2023-01-28T02:49:47;100270.91;;;12.24;44.43
16525;BME280;8375;33.594;-117.718;2023-01-28T02:52:37;100271.16;;;12.21;45.50
16525;BME280;8375;33.594;-117.718;2023-01-28T02:55:36;100262.59;;;12.09;46.23
16525;BME280;8375;33.594;-117.718;2023-01-28T02:58:13;100267.34;;;12.04;46.96
16525;BME280;8375;33.594;-117.718;2023-01-28T03:00:52;100260.84;;;11.98;45.52
16525;BME280;8375;33.594;-117.718;2023-01-28T03:03:28;100258.19;;;11.88;45.50
16525;BME280;8375;33.594;-117.718;2023-01-28T03:06:02;100263.75;;;11.84;45.13
16525;BME280;8375;33.594;-117.718;2023-01-28T03:08:36;100270.53;;;11.75;46.13
16525;BME280;8375;33.594;-117.718;2023-01-28T03:11:24;100258.03;;;11.69;46.51
16525;BME280;8375;33.594;-117.718;2023-01-28T03:14:12;100266.19;;;11.64;46.63
16525;BME280;8375;33.594;-117.718;2023-01-28T03:17:05;100261.34;;;11.59;45.78
16525;BME280;8375;33.594;-117.718;2023-01-28T03:19:54;100262.09;;;11.50;46.41
16525;BME280;8375;33.594;-117.718;2023-01-28T03:22:40;100266.00;;;11.44;46.61
16525;BME280;8375;33.594;-117.718;2023-01-28T03:25:34;100268.28;;;11.38;46.97
16525;BME280;8375;33.594;-117.718;2023-01-28T03:28:20;100262.38;;;11.24;46.89
16525;BME280;8375;33.594;-117.718;2023-01-28T03:31:09;100267.13;;;11.19;48.09
16525;BME280;8375;33.594;-117.718;2023-01-28T03:34:02;100266.19;;;11.09;48.42
16525;BME280;8375;33.594;-117.718;2023-01-28T03:36:49;100267.13;;;11.08;49.82
16525;BME280;8375;33.594;-117.718;2023-01-28T03:39:24;100266.19;;;11.09;50.09
16525;BME280;8375;33.594;-117.718;2023-01-28T03:42:00;100266.78;;;11.01;48.56
16525;BME280;8375;33.594;-117.718;2023-01-28T03:44:33;100271.41;;;10.86;48.69
16525;BME280;8375;33.594;-117.718;2023-01-28T03:47:24;100263.38;;;10.78;49.19
16525;BME280;8375;33.594;-117.718;2023-01-28T03:49:59;100257.00;;;10.70;49.72
16525;BME280;8375;33.594;-117.718;2023-01-28T03:52:33;100258.75;;;10.59;49.89
16525;BME280;8375;33.594;-117.718;2023-01-28T03:55:03;100269.13;;;10.59;50.48
16525;BME280;8375;33.594;-117.718;2023-01-28T03:57:40;100258.13;;;10.55;51.14
16525;BME280;8375;33.594;-117.718;2023-01-28T04:00:18;100270.88;;;10.47;52.11
16525;BME280;8375;33.594;-117.718;2023-01-28T04:02:49;100266.50;;;10.47;51.70
16525;BME280;8375;33.594;-117.718;2023-01-28T04:05:20;100272.97;;;10.41;51.21
16525;BME280;8375;33.594;-117.718;2023-01-28T04:07:51;100272.13;;;10.30;51.66
16525;BME280;8375;33.594;-117.718;2023-01-28T04:10:22;100272.44;;;10.25;51.69
16525;BME280;8375;33.594;-117.718;2023-01-28T04:12:51;100270.78;;;10.24;51.88
16525;BME280;8375;33.594;-117.718;2023-01-28T04:15:20;100276.78;;;10.13;52.27
16525;BME280;8375;33.594;-117.718;2023-01-28T04:18:00;100272.53;;;10.12;52.11
16525;BME280;8375;33.594;-117.718;2023-01-28T04:20:35;100271.34;;;10.05;52.53
16525;BME280;8375;33.594;-117.718;2023-01-28T04:23:05;100270.72;;;10.01;53.70
16525;BME280;8375;33.594;-117.718;2023-01-28T04:25:35;100277.53;;;9.91;52.90
16525;BME280;8375;33.594;-117.718;2023-01-28T04:28:07;100275.59;;;9.81;53.42
16525;BME280;8375;33.594;-117.718;2023-01-28T04:30:36;100278.75;;;9.74;53.34
16525;BME280;8375;33.594;-117.718;2023-01-28T04:33:05;100277.09;;;9.73;53.04
16525;BME280;8375;33.594;-117.718;2023-01-28T04:35:42;100275.38;;;9.60;53.55
16525;BME280;8375;33.594;-117.718;2023-01-28T04:38:17;100260.50;;;9.51;53.73
16525;BME280;8375;33.594;-117.718;2023-01-28T04:40:50;100270.03;;;9.50;54.93
16525;BME280;8375;33.594;-117.718;2023-01-28T04:43:20;100262.97;;;9.52;55.65
16525;BME280;8375;33.594;-117.718;2023-01-28T04:45:49;100265.78;;;9.49;54.83
16525;BME280;8375;33.594;-117.718;2023-01-28T04:48:39;100265.41;;;9.43;54.92
16525;BME280;8375;33.594;-117.718;2023-01-28T04:51:11;100254.31;;;9.41;55.38
16525;BME280;8375;33.594;-117.718;2023-01-28T04:53:45;100251.31;;;9.34;55.41
16525;BME280;8375;33.594;-117.718;2023-01-28T04:56:17;100253.41;;;9.29;55.70
16525;BME280;8375;33.594;-117.718;2023-01-28T04:58:49;100246.06;;;9.22;55.25
16525;BME280;8375;33.594;-117.718;2023-01-28T05:01:19;100250.97;;;9.14;55.10
16525;BME280;8375;33.594;-117.718;2023-01-28T05:03:51;100261.53;;;9.11;55.77
16525;BME280;8375;33.594;-117.718;2023-01-28T05:06:22;100257.78;;;9.15;57.04
16525;BME280;8375;33.594;-117.718;2023-01-28T05:08:51;100249.72;;;9.20;57.50
16525;BME280;8375;33.594;-117.718;2023-01-28T05:11:20;100250.53;;;9.20;56.78
16525;BME280;8375;33.594;-117.718;2023-01-28T05:13:50;100251.38;;;9.08;56.28
16525;BME280;8375;33.594;-117.718;2023-01-28T05:16:22;100256.69;;;8.93;56.39
16525;BME280;8375;33.594;-117.718;2023-01-28T05:18:50;100263.22;;;8.86;56.75
16525;BME280;8375;33.594;-117.718;2023-01-28T05:21:21;100264.72;;;8.77;57.06
16525;BME280;8375;33.594;-117.718;2023-01-28T05:23:50;100263.34;;;8.72;58.07
16525;BME280;8375;33.594;-117.718;2023-01-28T05:26:19;100270.31;;;8.71;58.20
16525;BME280;8375;33.594;-117.718;2023-01-28T05:28:48;100269.78;;;8.66;58.64
16525;BME280;8375;33.594;-117.718;2023-01-28T05:31:21;100270.28;;;8.58;59.21
16525;BME280;8375;33.594;-117.718;2023-01-28T05:33:49;100269.22;;;8.48;59.01
16525;BME280;8375;33.594;-117.718;2023-01-28T05:36:21;100279.03;;;8.43;60.67
16525;BME280;8375;33.594;-117.718;2023-01-28T05:38:50;100279.88;;;8.43;60.59
16525;BME280;8375;33.594;-117.718;2023-01-28T05:41:19;100274.28;;;8.36;61.12
16525;BME280;8375;33.594;-117.718;2023-01-28T05:43:50;100280.19;;;8.39;60.87
16525;BME280;8375;33.594;-117.718;2023-01-28T05:46:19;100284.00;;;8.46;62.02
16525;BME280;8375;33.594;-117.718;2023-01-28T05:48:50;100284.75;;;8.35;60.08
16525;BME280;8375;33.594;-117.718;2023-01-28T05:51:21;100290.22;;;8.30;60.83
16525;BME280;8375;33.594;-117.718;2023-01-28T05:53:50;100293.00;;;8.27;61.28
16525;BME280;8375;33.594;-117.718;2023-01-28T05:56:22;100289.06;;;8.21;61.50
16525;BME280;8375;33.594;-117.718;2023-01-28T05:58:51;100285.63;;;8.21;62.16
16525;BME280;8375;33.594;-117.718;2023-01-28T06:01:20;100291.41;;;8.12;61.96
16525;BME280;8375;33.594;-117.718;2023-01-28T06:03:49;100291.59;;;8.08;62.93
16525;BME280;8375;33.594;-117.718;2023-01-28T06:06:21;100290.69;;;8.10;63.23
16525;BME280;8375;33.594;-117.718;2023-01-28T06:08:50;100286.75;;;8.04;63.47
16525;BME280;8375;33.594;-117.718;2023-01-28T06:11:20;100280.00;;;8.01;63.07
16525;BME280;8375;33.594;-117.718;2023-01-28T06:13:49;100284.38;;;8.01;62.75
16525;BME280;8375;33.594;-117.718;2023-01-28T06:16:20;100289.81;;;7.96;62.54
16525;BME280;8375;33.594;-117.718;2023-01-28T06:18:50;100295.28;;;7.91;62.92
16525;BME280;8375;33.594;-117.718;2023-01-28T06:21:21;100293.28;;;7.82;63.57
16525;BME280;8375;33.594;-117.718;2023-01-28T06:23:50;100293.59;;;7.77;63.93
16525;BME280;8375;33.594;-117.718;2023-01-28T06:26:20;100298.94;;;7.74;64.64
16525;BME280;8375;33.594;-117.718;2023-01-28T06:28:49;100305.84;;;7.74;65.07
16525;BME280;8375;33.594;-117.718;2023-01-28T06:31:28;100294.16;;;7.68;65.50
16525;BME280;8375;33.594;-117.718;2023-01-28T06:33:58;100295.38;;;7.62;65.03
16525;BME280;8375;33.594;-117.718;2023-01-28T06:36:35;100292.16;;;7.59;65.17
16525;BME280;8375;33.594;-117.718;2023-01-28T06:39:05;100290.69;;;7.55;66.12
16525;BME280;8375;33.594;-117.718;2023-01-28T06:41:35;100290.16;;;7.49;66.55
16525;BME280;8375;33.594;-117.718;2023-01-28T06:44:05;100289.63;;;7.44;66.72
16525;BME280;8375;33.594;-117.718;2023-01-28T06:46:35;100287.50;;;7.37;66.11
16525;BME280;8375;33.594;-117.718;2023-01-28T06:49:05;100280.84;;;7.32;67.36
16525;BME280;8375;33.594;-117.718;2023-01-28T06:51:37;100278.56;;;7.28;67.46
16525;BME280;8375;33.594;-117.718;2023-01-28T06:54:06;100271.75;;;7.27;67.08
16525;BME280;8375;33.594;-117.718;2023-01-28T06:56:35;100266.22;;;7.18;67.27
16525;BME280;8375;33.594;-117.718;2023-01-28T06:59:05;100260.41;;;7.15;67.23
16525;BME280;8375;33.594;-117.718;2023-01-28T07:01:35;100258.94;;;7.11;67.50
16525;BME280;8375;33.594;-117.718;2023-01-28T07:04:05;100253.03;;;7.09;67.41
16525;BME280;8375;33.594;-117.718;2023-01-28T07:06:39;100261.28;;;7.01;68.59
16525;BME280;8375;33.594;-117.718;2023-01-28T07:09:08;100249.28;;;7.00;68.53
16525;BME280;8375;33.594;-117.718;2023-01-28T07:11:38;100253.59;;;6.99;69.63
16525;BME280;8375;33.594;-117.718;2023-01-28T07:14:06;100252.13;;;6.95;69.26
16525;BME280;8375;33.594;-117.718;2023-01-28T07:16:37;100254.16;;;6.90;69.36
16525;BME280;8375;33.594;-117.718;2023-01-28T07:19:06;100251.03;;;6.85;69.39
16525;BME280;8375;33.594;-117.718;2023-01-28T07:21:39;100264.03;;;6.83;69.95
16525;BME280;8375;33.594;-117.718;2023-01-28T07:24:09;100259.88;;;6.66;71.01
16525;BME280;8375;33.594;-117.718;2023-01-28T07:26:38;100259.16;;;6.64;71.25
16525;BME280;8375;33.594;-117.718;2023-01-28T07:29:08;100257.22;;;6.68;71.83
16525;BME280;8375;33.594;-117.718;2023-01-28T07:31:37;100257.22;;;6.68;71.57
16525;BME280;8375;33.594;-117.718;2023-01-28T07:34:07;100257.47;;;6.63;70.56
16525;BME280;8375;33.594;-117.718;2023-01-28T07:36:36;100268.16;;;6.57;71.15
16525;BME280;8375;33.594;-117.718;2023-01-28T07:39:08;100277.84;;;6.53;71.53
16525;BME280;8375;33.594;-117.718;2023-01-28T07:41:37;100274.72;;;6.48;71.73
16525;BME280;8375;33.594;-117.718;2023-01-28T07:44:06;100280.78;;;6.47;71.60
16525;BME280;8375;33.594;-117.718;2023-01-28T07:46:35;100274.03;;;6.44;71.90
16525;BME280;8375;33.594;-117.718;2023-01-28T07:49:03;100271.91;;;6.37;72.52
16525;BME280;8375;33.594;-117.718;2023-01-28T07:51:35;100267.69;;;6.36;72.26
16525;BME280;8375;33.594;-117.718;2023-01-28T07:54:07;100266.09;;;6.33;72.36
16525;BME280;8375;33.594;-117.718;2023-01-28T07:56:36;100269.69;;;6.30;72.11
16525;BME280;8375;33.594;-117.718;2023-01-28T07:59:04;100271.53;;;6.28;73.22
16525;BME280;8375;33.594;-117.718;2023-01-28T08:01:34;100269.94;;;6.26;73.46
16525;BME280;8375;33.594;-117.718;2023-01-28T08:04:02;100266.56;;;6.25;73.63
16525;BME280;8375;33.594;-117.718;2023-01-28T08:06:31;100260.84;;;6.20;73.52
16525;BME280;8375;33.594;-117.718;2023-01-28T08:09:03;100263.41;;;6.20;73.79
16525;BME280;8375;33.594;-117.718;2023-01-28T08:11:37;100265.25;;;6.18;73.86
16525;BME280;8375;33.594;-117.718;2023-01-28T08:14:06;100267.25;;;6.13;74.29
16525;BME280;8375;33.594;-117.718;2023-01-28T08:16:35;100269.91;;;6.11;74.97
16525;BME280;8375;33.594;-117.718;2023-01-28T08:19:04;100264.94;;;6.08;75.23
16525;BME280;8375;33.594;-117.718;2023-01-28T08:21:32;100267.63;;;6.07;75.37
16525;BME280;8375;33.594;-117.718;2023-01-28T08:24:01;100267.78;;;6.04;74.57
16525;BME280;8375;33.594;-117.718;2023-01-28T08:26:30;100255.88;;;6.01;74.65
16525;BME280;8375;33.594;-117.718;2023-01-28T08:29:00;100259.47;;;5.98;74.85
16525;BME280;8375;33.594;-117.718;2023-01-28T08:31:29;100249.03;;;6.00;75.57
16525;BME280;8375;33.594;-117.718;2023-01-28T08:33:57;100252.31;;;6.04;75.33
16525;BME280;8375;33.594;-117.718;2023-01-28T08:36:26;100249.66;;;6.05;75.36
16525;BME280;8375;33.594;-117.718;2023-01-28T08:38:54;100252.78;;;6.10;74.92
16525;BME280;8375;33.594;-117.718;2023-01-28T08:41:23;100247.56;;;6.12;75.18
16525;BME280;8375;33.594;-117.718;2023-01-28T08:43:52;100244.81;;;6.15;75.53
16525;BME280;8375;33.594;-117.718;2023-01-28T08:46:22;100240.66;;;6.12;75.86
16525;BME280;8375;33.594;-117.718;2023-01-28T08:48:51;100237.59;;;6.06;76.45
16525;BME280;8375;33.594;-117.718;2023-01-28T08:51:20;100232.28;;;6.09;75.85
16525;BME280;8375;33.594;-117.718;2023-01-28T08:53:48;100231.47;;;5.92;75.91
16525;BME280;8375;33.594;-117.718;2023-01-28T08:56:17;100235.03;;;5.90;76.71
16525;BME280;8375;33.594;-117.718;2023-01-28T08:58:46;100233.94;;;5.94;76.98
16525;BME280;8375;33.594;-117.718;2023-01-28T09:01:14;100226.88;;;5.97;77.17
16525;BME280;8375;33.594;-117.718;2023-01-28T09:03:45;100235.19;;;6.03;77.71
16525;BME280;8375;33.594;-117.718;2023-01-28T09:06:13;100230.13;;;6.01;77.03
16525;BME280;8375;33.594;-117.718;2023-01-28T09:08:42;100236.44;;;5.95;77.33
16525;BME280;8375;33.594;-117.718;2023-01-28T09:11:11;100228.59;;;5.97;77.98
16525;BME280;8375;33.594;-117.718;2023-01-28T09:13:39;100229.34;;;5.99;78.34
16525;BME280;8375;33.594;-117.718;2023-01-28T09:16:08;100235.09;;;6.04;78.05
16525;BME280;8375;33.594;-117.718;2023-01-28T09:18:37;100233.25;;;6.06;78.59
16525;BME280;8375;33.594;-117.718;2023-01-28T09:21:07;100227.75;;;6.12;78.21
16525;BME280;8375;33.594;-117.718;2023-01-28T09:23:36;100228.41;;;6.16;78.20
16525;BME280;8375;33.594;-117.718;2023-01-28T09:26:06;100230.81;;;6.19;77.88
16525;BME280;8375;33.594;-117.718;2023-01-28T09:28:34;100233.56;;;6.16;77.59
16525;BME280;8375;33.594;-117.718;2023-01-28T09:31:05;100240.22;;;6.20;77.67
16525;BME280;8375;33.594;-117.718;2023-01-28T09:33:34;100237.09;;;6.29;77.31
16525;BME280;8375;33.594;-117.718;2023-01-28T09:36:04;100230.38;;;6.27;77.80
16525;BME280;8375;33.594;-117.718;2023-01-28T09:38:34;100238.19;;;6.25;78.01
16525;BME280;8375;33.594;-117.718;2023-01-28T09:41:14;100236.63;;;6.23;78.02
16525;BME280;8375;33.594;-117.718;2023-01-28T09:43:59;100232.88;;;6.28;78.41
16525;BME280;8375;33.594;-117.718;2023-01-28T09:46:33;100225.88;;;6.30;79.17
16525;BME280;8375;33.594;-117.718;2023-01-28T09:49:08;100218.94;;;6.31;78.72
16525;BME280;8375;33.594;-117.718;2023-01-28T09:51:42;100244.00;;;6.29;78.88
16525;BME280;8375;33.594;-117.718;2023-01-28T09:54:20;100237.47;;;6.23;79.33
16525;BME280;8375;33.594;-117.718;2023-01-28T09:56:55;100230.72;;;6.21;79.44
16525;BME280;8375;33.594;-117.718;2023-01-28T09:59:32;100230.47;;;6.25;78.50
16525;BME280;8375;33.594;-117.718;2023-01-28T10:02:13;100227.78;;;6.27;78.72
16525;BME280;8375;33.594;-117.718;2023-01-28T10:04:55;100213.78;;;6.31;79.13
16525;BME280;8375;33.594;-117.718;2023-01-28T10:07:33;100202.38;;;6.35;78.93
16525;BME280;8375;33.594;-117.718;2023-01-28T10:10:10;100214.34;;;6.36;78.07
16525;BME280;8375;33.594;-117.718;2023-01-28T10:13:10;100218.88;;;6.33;77.48
16525;BME280;8375;33.594;-117.718;2023-01-28T10:15:50;100202.38;;;6.35;76.93
16525;BME280;8375;33.594;-117.718;2023-01-28T10:18:29;100208.09;;;6.40;76.97
16525;BME280;8375;33.594;-117.718;2023-01-28T10:21:05;100214.00;;;6.42;78.66
16525;BME280;8375;33.594;-117.718;2023-01-28T10:23:47;100209.69;;;6.43;79.59
16525;BME280;8375;33.594;-117.718;2023-01-28T10:26:23;100209.56;;;6.44;79.79
16525;BME280;8375;33.594;-117.718;2023-01-28T10:28:57;100217.31;;;6.44;79.66
16525;BME280;8375;33.594;-117.718;2023-01-28T10:31:31;100214.72;;;6.44;79.58
16525;BME280;8375;33.594;-117.718;2023-01-28T10:34:02;100220.00;;;6.43;79.33
16525;BME280;8375;33.594;-117.718;2023-01-28T10:36:31;100229.81;;;6.36;78.97
16525;BME280;8375;33.594;-117.718;2023-01-28T10:39:00;100240.59;;;6.28;79.24
16525;BME280;8375;33.594;-117.718;2023-01-28T10:41:31;100229.81;;;6.22;79.85
16525;BME280;8375;33.594;-117.718;2023-01-28T10:43:59;100243.03;;;6.15;79.44
16525;BME280;8375;33.594;-117.718;2023-01-28T10:46:31;100258.84;;;6.09;79.69
16525;BME280;8375;33.594;-117.718;2023-01-28T10:49:05;100260.97;;;6.03;80.29
16525;BME280;8375;33.594;-117.718;2023-01-28T10:51:37;100261.28;;;5.96;81.13
16525;BME280;8375;33.594;-117.718;2023-01-28T10:54:18;100257.22;;;5.92;81.30
16525;BME280;8375;33.594;-117.718;2023-01-28T10:56:51;100262.44;;;5.91;81.75
16525;BME280;8375;33.594;-117.718;2023-01-28T10:59:24;100253.91;;;5.90;82.12
16525;BME280;8375;33.594;-117.718;2023-01-28T11:01:55;100243.59;;;5.90;83.00
16525;BME280;8375;33.594;-117.718;2023-01-28T11:04:26;100237.78;;;5.86;83.30
16525;BME280;8375;33.594;-117.718;2023-01-28T11:06:58;100242.75;;;5.90;83.35
16525;BME280;8375;33.594;-117.718;2023-01-28T11:09:28;100254.16;;;5.85;83.43
16525;BME280;8375;33.594;-117.718;2023-01-28T11:12:10;100247.84;;;5.75;83.82
16525;BME280;8375;33.594;-117.718;2023-01-28T11:14:49;100247.38;;;5.68;84.17
16525;BME280;8375;33.594;-117.718;2023-01-28T11:17:19;100246.88;;;5.62;84.43
16525;BME280;8375;33.594;-117.718;2023-01-28T11:19:50;100245.03;;;5.64;85.14
16525;BME280;8375;33.594;-117.718;2023-01-28T11:22:25;100240.97;;;5.60;85.32
16525;BME280;8375;33.594;-117.718;2023-01-28T11:24:57;100243.38;;;5.63;85.15
16525;BME280;8375;33.594;-117.718;2023-01-28T11:27:30;100242.63;;;5.61;85.64
16525;BME280;8375;33.594;-117.718;2023-01-28T11:30:00;100234.16;;;5.58;86.16
16525;BME280;8375;33.594;-117.718;2023-01-28T11:32:30;100234.16;;;5.58;87.02
16525;BME280;8375;33.594;-117.718;2023-01-28T11:34:59;100229.69;;;5.62;87.75
16525;BME280;8375;33.594;-117.718;2023-01-28T11:37:28;100230.34;;;5.66;88.60
16525;BME280;8375;33.594;-117.718;2023-01-28T11:40:15;100220.72;;;5.69;88.96
16525;BME280;8375;33.594;-117.718;2023-01-28T11:42:47;100217.03;;;5.73;89.70
16525;BME280;8375;33.594;-117.718;2023-01-28T11:45:17;100220.00;;;5.82;89.63
16525;BME280;8375;33.594;-117.718;2023-01-28T11:47:54;100212.84;;;5.87;90.00
16525;BME280;8375;33.594;-117.718;2023-01-28T11:50:39;100216.59;;;5.81;90.22
16525;BME280;8375;33.594;-117.718;2023-01-28T11:53:45;100214.88;;;5.82;89.84
16525;BME280;8375;33.594;-117.718;2023-01-28T11:56:31;100217.50;;;5.80;90.53
16525;BME280;8375;33.594;-117.718;2023-01-28T11:59:17;100213.09;;;5.82;91.29
16525;BME280;8375;33.594;-117.718;2023-01-28T12:01:55;100222.50;;;5.83;91.76
16525;BME280;8375;33.594;-117.718;2023-01-28T12:04:41;100228.03;;;5.92;91.27
16525;BME280;8375;33.594;-117.718;2023-01-28T12:07:26;100235.53;;;5.96;91.60
16525;BME280;8375;33.594;-117.718;2023-01-28T12:10:05;100230.78;;;6.05;92.42
16525;BME280;8375;33.594;-117.718;2023-01-28T12:12:53;100223.69;;;6.08;92.05
16525;BME280;8375;33.594;-117.718;2023-01-28T12:15:50;100227.00;;;6.10;92.49
16525;BME280;8375;33.594;-117.718;2023-01-28T12:18:47;100226.09;;;6.11;92.89
16525;BME280;8375;33.594;-117.718;2023-01-28T12:21:29;100227.56;;;6.15;93.11
16525;BME280;8375;33.594;-117.718;2023-01-28T12:24:21;100219.38;;;6.09;91.94
16525;BME280;8375;33.594;-117.718;2023-01-28T12:27:03;100228.38;;;6.01;90.76
16525;BME280;8375;33.594;-117.718;2023-01-28T12:29:40;100223.06;;;5.88;89.64
16525;BME280;8375;33.594;-117.718;2023-01-28T12:32:33;100220.09;;;5.80;90.70
16525;BME280;8375;33.594;-117.718;2023-01-28T12:35:21;100218.34;;;5.81;90.11
16525;BME280;8375;33.594;-117.718;2023-01-28T12:38:05;100211.50;;;5.65;90.54
16525;BME280;8375;33.594;-117.718;2023-01-28T12:40:54;100209.91;;;5.63;91.55
16525;BME280;8375;33.594;-117.718;2023-01-28T12:43:38;100205.59;;;5.63;92.68
16525;BME280;8375;33.594;-117.718;2023-01-28T12:46:16;100208.75;;;5.68;94.76
16525;BME280;8375;33.594;-117.718;2023-01-28T12:48:48;100202.91;;;5.81;96.69
16525;BME280;8375;33.594;-117.718;2023-01-28T12:51:21;100215.31;;;5.88;98.30
16525;BME280;8375;33.594;-117.718;2023-01-28T12:53:56;100214.00;;;5.97;98.94
16525;BME280;8375;33.594;-117.718;2023-01-28T12:56:30;100214.59;;;6.03;98.52
16525;BME280;8375;33.594;-117.718;2023-01-28T12:59:03;100211.31;;;5.99;98.83
16525;BME280;8375;33.594;-117.718;2023-01-28T13:01:39;100211.25;;;6.00;98.89
16525;BME280;8375;33.594;-117.718;2023-01-28T13:04:15;100206.69;;;6.06;99.10
16525;BME280;8375;33.594;-117.718;2023-01-28T13:06:48;100211.66;;;6.09;99.28
16525;BME280;8375;33.594;-117.718;2023-01-28T13:09:20;100203.00;;;6.10;98.39
16525;BME280;8375;33.594;-117.718;2023-01-28T13:11:52;100212.22;;;6.14;98.39
16525;BME280;8375;33.594;-117.718;2023-01-28T13:14:26;100214.06;;;6.12;98.13